Richmond, Illinois
Current Conditions -  °F | °C
As of 11:55 AM on Monday 24 Nov 2014 (Local Time) from KBUU Reporting Station
Moderate Snow Moderate Snow  
Wind Chill: -6°   Ceiling: 500
Heat Index:   Visibility: 0.5mi
Dew Point: -1°   Wind: 15mph
Humidity: 98%   Direction: 250°WSW
Pressure: 29.22"   Gusts: 23mph
Location:  42.48°N, 88.31°W
Report Text: KBUU 241755Z AUTO 25013G20KT 1/2SM SN OVC005 00/00 A2922 RMK AO2 P0005 60011 T10021005 10063 21002
Loading
Personal Weather Stations






























Interactive Weather Map New forecast layout! Learn more

10-Day Weather Forecast

Advertisements
Track Severe Weather on mobile